Time;durP1;ratioP1;P1;durP2;ratioP2;P2;SDS_P1;SDS_P2;PMS_P1;PMS_P2;Temp;Humidity;BMP_temperature;BMP_pressure;BME280_temperature;BME280_humidity;BME280_pressure;Samples;Min_cycle;Max_cycle;Signal;HPM_P1;HPM_P2
2022/11/12 00:02:14;;;;;;;20.52;15.50;;;7.40;99.90;;;;;;5096448;28;20090;-60
2022/11/12 00:04:58;;;;;;;24.17;16.73;;;7.40;99.90;;;;;;5097540;28;20437;-61
2022/11/12 00:07:42;;;;;;;21.52;16.25;;;7.40;99.90;;;;;;5098608;28;20311;-60
2022/11/12 00:10:27;;;;;;;19.77;15.63;;;7.60;99.90;;;;;;5101168;28;20051;-60
2022/11/12 00:13:12;;;;;;;22.92;16.27;;;7.50;99.90;;;;;;5100511;28;20047;-60
2022/11/12 00:15:57;;;;;;;21.20;16.10;;;7.40;99.90;;;;;;5101343;28;20051;-60
2022/11/12 00:18:41;;;;;;;19.75;15.43;;;7.40;99.90;;;;;;5101281;28;20101;-61
2022/11/12 00:21:25;;;;;;;22.55;15.93;;;7.50;99.90;;;;;;5101202;28;20051;-61
2022/11/12 00:24:09;;;;;;;19.67;15.57;;;7.40;99.90;;;;;;5100369;28;20135;-60
2022/11/12 00:26:54;;;;;;;22.50;15.85;;;7.30;99.90;;;;;;5100696;28;20094;-61
2022/11/12 00:29:39;;;;;;;22.85;15.55;;;7.30;99.90;;;;;;5100930;28;20051;-61
2022/11/12 00:32:24;;;;;;;20.10;15.90;;;7.40;99.90;;;;;;5085966;28;20190;-60
2022/11/12 00:35:08;;;;;;;27.40;16.70;;;7.30;99.90;;;;;;5100601;28;20075;-61
2022/11/12 00:37:54;;;;;;;22.65;16.23;;;7.20;99.90;;;;;;5100745;28;20047;-61
2022/11/12 00:40:41;;;;;;;22.20;16.85;;;7.30;99.90;;;;;;5100527;28;20059;-61
2022/11/12 00:43:25;;;;;;;20.42;16.40;;;7.20;99.90;;;;;;5099897;28;20124;-60
2022/11/12 00:46:10;;;;;;;22.25;16.60;;;7.20;99.90;;;;;;5101125;28;20430;-60
2022/11/12 00:48:54;;;;;;;20.63;16.15;;;7.20;99.90;;;;;;5100605;28;20051;-60
2022/11/12 00:51:38;;;;;;;22.88;16.75;;;7.20;99.90;;;;;;5099918;28;20047;-61
2022/11/12 00:54:23;;;;;;;24.48;17.90;;;7.20;99.90;;;;;;5100777;28;20043;-60
2022/11/12 00:57:07;;;;;;;22.95;17.05;;;7.30;99.90;;;;;;5099829;28;20484;-62
2022/11/12 00:59:51;;;;;;;21.38;17.05;;;7.20;99.90;;;;;;5099576;28;20139;-61
2022/11/12 01:02:35;;;;;;;21.80;16.65;;;7.20;99.90;;;;;;5100169;28;20051;-60
2022/11/12 01:05:20;;;;;;;25.55;16.83;;;7.30;99.90;;;;;;5086026;28;20050;-60
2022/11/12 01:08:04;;;;;;;23.85;16.27;;;7.30;99.90;;;;;;5099290;28;20120;-60
2022/11/12 01:10:49;;;;;;;22.42;16.73;;;7.30;99.90;;;;;;5085070;28;20047;-62
2022/11/12 01:13:33;;;;;;;20.33;16.38;;;7.30;99.90;;;;;;5099642;28;20310;-60
2022/11/12 01:16:20;;;;;;;21.40;16.48;;;7.30;99.90;;;;;;5100310;28;20136;-61
2022/11/12 01:19:07;;;;;;;21.40;16.23;;;7.30;99.90;;;;;;5099876;28;20074;-61
2022/11/12 01:21:51;;;;;;;22.40;16.10;;;7.30;99.90;;;;;;5099958;28;20097;-61
2022/11/12 01:24:36;;;;;;;20.65;15.60;;;7.30;99.90;;;;;;5099079;28;20047;-61
2022/11/12 01:27:20;;;;;;;23.42;15.60;;;7.20;99.90;;;;;;5099479;28;20046;-61
2022/11/12 01:30:04;;;;;;;23.10;15.93;;;7.10;99.90;;;;;;5098971;28;20042;-61
2022/11/12 01:32:49;;;;;;;19.38;15.48;;;7.20;99.90;;;;;;5099433;28;20051;-60
2022/11/12 01:35:33;;;;;;;19.83;14.82;;;7.20;99.90;;;;;;5099535;28;20132;-61
2022/11/12 01:38:17;;;;;;;20.52;15.38;;;7.10;99.90;;;;;;5099345;28;20096;-61
2022/11/12 01:41:02;;;;;;;20.52;15.05;;;7.10;99.90;;;;;;5099249;28;20054;-61
2022/11/12 01:43:47;;;;;;;18.42;15.27;;;7.10;99.90;;;;;;5099373;28;20101;-60
2022/11/12 01:46:33;;;;;;;19.08;15.02;;;7.20;99.90;;;;;;5099555;28;20047;-61
2022/11/12 01:49:23;;;;;;;18.25;14.02;;;7.20;99.90;;;;;;5099333;28;20054;-60
2022/11/12 01:52:15;;;;;;;18.75;14.40;;;7.10;99.90;;;;;;5099325;28;20418;-60
2022/11/12 01:55:21;;;;;;;16.88;14.50;;;7.10;99.90;;;;;;5099580;28;20085;-60
2022/11/12 01:58:12;;;;;;;18.92;14.25;;;7.10;99.90;;;;;;5098859;28;20047;-60
2022/11/12 02:00:56;;;;;;;19.50;14.95;;;7.00;99.90;;;;;;5099418;28;20043;-60
2022/11/12 02:03:41;;;;;;;21.15;14.57;;;7.10;99.90;;;;;;5098861;28;20126;-60
2022/11/12 02:06:25;;;;;;;17.75;14.30;;;7.00;99.90;;;;;;5099472;28;20082;-60
2022/11/12 02:09:10;;;;;;;18.77;14.52;;;7.00;99.90;;;;;;5098875;28;20406;-61
2022/11/12 02:11:54;;;;;;;17.80;14.15;;;6.90;99.90;;;;;;5098991;28;20047;-61
2022/11/12 02:14:39;;;;;;;17.92;14.65;;;6.80;99.90;;;;;;5099151;28;20069;-61
2022/11/12 02:17:23;;;;;;;19.20;15.25;;;6.90;99.90;;;;;;5098813;28;20426;-60
2022/11/12 02:20:09;;;;;;;17.30;14.10;;;6.90;99.90;;;;;;5097946;28;20047;-60
2022/11/12 02:22:54;;;;;;;19.30;14.90;;;6.80;99.90;;;;;;5098589;28;20311;-59
2022/11/12 02:25:38;;;;;;;21.10;14.85;;;6.90;99.90;;;;;;5097879;28;20070;-60
2022/11/12 02:28:22;;;;;;;17.60;14.23;;;6.90;99.90;;;;;;5098307;28;20054;-60
2022/11/12 02:31:07;;;;;;;20.27;14.85;;;6.90;99.90;;;;;;5082835;28;20097;-60
2022/11/12 02:33:51;;;;;;;17.25;14.38;;;7.00;99.90;;;;;;5097718;28;20312;-61
2022/11/12 02:36:35;;;;;;;20.38;14.73;;;6.90;99.90;;;;;;5097818;28;20051;-61
2022/11/12 02:39:20;;;;;;;18.30;14.23;;;6.90;99.90;;;;;;5097592;28;20321;-60
2022/11/12 02:42:04;;;;;;;20.83;14.30;;;6.90;99.90;;;;;;5098676;28;20050;-61
2022/11/12 02:44:48;;;;;;;17.40;13.80;;;6.80;99.90;;;;;;5097550;28;20058;-61
2022/11/12 02:47:33;;;;;;;18.45;13.82;;;6.80;99.90;;;;;;5097362;28;20097;-61
2022/11/12 02:50:18;;;;;;;16.25;12.85;;;6.70;99.90;;;;;;5098009;28;20715;-61
2022/11/12 02:53:02;;;;;;;17.38;14.05;;;6.80;99.90;;;;;;5098060;28;20035;-61
2022/11/12 02:55:46;;;;;;;17.83;14.07;;;6.80;99.90;;;;;;5097329;28;20047;-61
2022/11/12 02:58:31;;;;;;;19.65;13.70;;;6.80;99.90;;;;;;5097036;28;20063;-61
2022/11/12 03:01:15;;;;;;;16.48;13.13;;;6.80;99.90;;;;;;5097808;28;20047;-61
2022/11/12 03:04:00;;;;;;;18.17;13.63;;;6.70;99.90;;;;;;5098338;28;20360;-60
2022/11/12 03:06:44;;;;;;;16.17;12.75;;;6.70;99.90;;;;;;5097459;28;20113;-60
2022/11/12 03:09:29;;;;;;;16.70;12.88;;;6.60;99.90;;;;;;5098046;28;20048;-60
2022/11/12 03:12:13;;;;;;;16.00;12.07;;;6.60;99.90;;;;;;5097605;28;20132;-60
2022/11/12 03:14:57;;;;;;;17.80;13.25;;;6.60;99.90;;;;;;5097606;28;20043;-60
2022/11/12 03:17:42;;;;;;;15.93;13.15;;;6.60;99.90;;;;;;5097121;28;20398;-61
2022/11/12 03:20:27;;;;;;;17.25;13.90;;;6.60;99.90;;;;;;5083235;28;20398;-61
2022/11/12 03:23:11;;;;;;;15.82;12.77;;;6.50;99.90;;;;;;5097338;28;20414;-60
2022/11/12 03:25:55;;;;;;;16.00;13.07;;;6.50;99.90;;;;;;5097392;28;20365;-61
2022/11/12 03:28:40;;;;;;;17.88;12.55;;;6.50;99.90;;;;;;5097330;28;20109;-61
2022/11/12 03:31:24;;;;;;;14.63;12.82;;;6.40;99.90;;;;;;5097263;28;20047;-61
2022/11/12 03:34:10;;;;;;;16.80;12.75;;;6.40;99.90;;;;;;5097372;28;20369;-61
2022/11/12 03:36:54;;;;;;;16.27;13.20;;;6.50;99.90;;;;;;5097208;28;20319;-60
2022/11/12 03:39:39;;;;;;;17.55;13.70;;;6.60;99.90;;;;;;5096648;28;20051;-61
2022/11/12 03:42:23;;;;;;;15.88;12.20;;;6.50;99.90;;;;;;5096738;28;20318;-61
2022/11/12 03:45:08;;;;;;;16.77;12.52;;;6.40;99.90;;;;;;5097423;28;20047;-61
2022/11/12 03:47:54;;;;;;;17.02;13.32;;;6.40;99.90;;;;;;5097053;28;20132;-60
2022/11/12 03:50:38;;;;;;;15.13;12.55;;;6.40;99.90;;;;;;5097719;28;20398;-60
2022/11/12 03:53:23;;;;;;;14.63;11.88;;;6.30;99.90;;;;;;5097324;28;20097;-60
2022/11/12 03:56:08;;;;;;;15.82;12.20;;;6.30;99.90;;;;;;5097642;28;20054;-60
2022/11/12 03:58:53;;;;;;;13.77;12.00;;;6.30;99.90;;;;;;5096860;28;20488;-61
2022/11/12 04:01:37;;;;;;;16.13;12.30;;;6.30;99.90;;;;;;5097035;28;20131;-62
2022/11/12 04:04:21;;;;;;;15.75;12.35;;;6.30;99.90;;;;;;5096492;28;20200;-61
2022/11/12 04:10:08;;;;;;;16.83;12.52;;;6.40;99.90;;;;;;5097210;28;20054;-61
2022/11/12 04:22:10;;;;;;;15.38;12.27;;;6.40;99.90;;;;;;5097384;28;20047;-61
2022/11/12 04:27:57;;;;;;;16.20;12.40;;;6.40;99.90;;;;;;5096712;28;20361;-61
2022/11/12 04:30:41;;;;;;;16.20;12.60;;;6.30;99.90;;;;;;5096740;28;20315;-61
2022/11/12 04:33:26;;;;;;;14.85;12.05;;;6.40;99.90;;;;;;5096082;28;20109;-61
2022/11/12 04:36:10;;;;;;;16.00;12.23;;;6.40;99.90;;;;;;5097209;28;20119;-61
2022/11/12 04:38:54;;;;;;;14.27;11.75;;;6.30;99.90;;;;;;5096621;28;20415;-61
2022/11/12 04:48:04;;;;;;;10.37;8.80;;;6.30;99.90;;;;;;5095245;28;20307;-61
2022/11/12 04:51:02;;;;;;;14.27;11.52;;;6.30;99.90;;;;;;5081133;28;20331;-62
2022/11/12 04:53:47;;;;;;;14.80;12.00;;;6.20;99.90;;;;;;5098198;28;20038;-61
2022/11/12 04:56:31;;;;;;;14.70;11.95;;;6.30;99.90;;;;;;5100092;28;20093;-61
2022/11/12 04:59:16;;;;;;;15.10;12.15;;;6.30;99.90;;;;;;5099651;28;20058;-61
2022/11/12 05:02:00;;;;;;;18.35;13.13;;;6.20;99.90;;;;;;5100238;28;20093;-62
2022/11/12 05:04:44;;;;;;;12.98;11.30;;;6.30;99.90;;;;;;5099978;28;20110;-62
2022/11/12 05:07:31;;;;;;;14.82;11.93;;;6.20;99.90;;;;;;5100217;28;20096;-62
2022/11/12 05:10:16;;;;;;;15.85;11.93;;;6.20;99.90;;;;;;5099913;28;20114;-62
2022/11/12 05:13:00;;;;;;;13.68;12.00;;;6.20;99.90;;;;;;5099778;28;20035;-62
2022/11/12 05:15:45;;;;;;;15.85;11.73;;;6.10;99.90;;;;;;5099519;28;20332;-61
2022/11/12 05:18:29;;;;;;;13.70;11.88;;;6.30;99.90;;;;;;5099771;28;20066;-62
2022/11/12 05:24:17;;;;;;;;;;;6.10;99.90;;;;;;5099916;28;20055;-62
2022/11/12 05:27:01;;;;;;;14.15;12.35;;;6.10;99.90;;;;;;5099671;28;20163;-62
2022/11/12 05:29:46;;;;;;;14.43;12.20;;;6.10;99.90;;;;;;5099450;28;20051;-62
2022/11/12 05:32:30;;;;;;;14.73;11.43;;;6.10;99.90;;;;;;5100152;28;20093;-62
2022/11/12 05:35:14;;;;;;;14.27;11.57;;;6.20;99.90;;;;;;5099362;28;20126;-62
2022/11/12 05:37:58;;;;;;;14.45;11.52;;;6.10;99.90;;;;;;5099343;28;20386;-62
2022/11/12 05:40:45;;;;;;;15.48;11.68;;;6.10;99.90;;;;;;5099955;28;20191;-62
2022/11/12 05:43:30;;;;;;;15.05;12.10;;;6.10;99.90;;;;;;5099255;28;20425;-62
2022/11/12 05:46:14;;;;;;;14.10;12.05;;;6.20;99.90;;;;;;5099257;28;20055;-62
2022/11/12 05:48:58;;;;;;;14.60;11.98;;;6.30;99.90;;;;;;5099163;28;20047;-62
2022/11/12 05:51:43;;;;;;;14.52;11.05;;;6.30;99.90;;;;;;5099334;28;20097;-61
2022/11/12 05:54:27;;;;;;;14.63;11.20;;;6.30;99.90;;;;;;5099696;28;20090;-62
2022/11/12 05:57:12;;;;;;;15.63;11.65;;;6.20;99.90;;;;;;5098745;28;20051;-62
2022/11/12 05:59:56;;;;;;;15.43;12.25;;;6.20;99.90;;;;;;5098283;28;20117;-61
2022/11/12 06:02:40;;;;;;;15.75;12.02;;;6.30;99.90;;;;;;5099224;28;20136;-61
2022/11/12 06:05:24;;;;;;;13.05;11.20;;;6.20;99.90;;;;;;5097646;28;20412;-61
2022/11/12 06:08:08;;;;;;;17.05;12.20;;;6.20;99.90;;;;;;5098653;28;20433;-61
2022/11/12 06:10:53;;;;;;;13.68;11.50;;;6.20;99.90;;;;;;5098651;28;20043;-61
2022/11/12 06:13:37;;;;;;;12.90;10.52;;;6.20;99.90;;;;;;5098883;28;20047;-61
2022/11/12 06:16:22;;;;;;;12.82;10.88;;;6.10;99.90;;;;;;5099168;28;20089;-61
2022/11/12 06:19:06;;;;;;;15.07;11.70;;;6.00;99.90;;;;;;5098102;28;20050;-61
2022/11/12 06:21:51;;;;;;;14.80;10.98;;;6.00;99.90;;;;;;5098323;28;20129;-62
2022/11/12 06:24:35;;;;;;;11.73;10.35;;;6.10;99.90;;;;;;5097821;28;20430;-62
2022/11/12 06:27:19;;;;;;;13.25;10.63;;;6.10;99.90;;;;;;5098267;28;20108;-61
2022/11/12 06:30:05;;;;;;;14.00;11.07;;;6.10;99.90;;;;;;5098334;28;20133;-61
2022/11/12 06:32:50;;;;;;;12.18;10.05;;;6.10;99.90;;;;;;5098567;28;20047;-61
2022/11/12 06:35:34;;;;;;;13.63;10.68;;;6.10;99.90;;;;;;5098336;28;20047;-61
2022/11/12 06:38:18;;;;;;;15.13;11.63;;;6.00;99.90;;;;;;5097560;28;20421;-61
2022/11/12 06:41:03;;;;;;;12.40;11.00;;;6.00;99.90;;;;;;5098214;28;20046;-61
2022/11/12 06:43:48;;;;;;;12.63;11.32;;;6.00;99.90;;;;;;5098388;28;20124;-61
2022/11/12 06:46:32;;;;;;;13.30;11.57;;;6.00;99.90;;;;;;5098550;28;20051;-62
2022/11/12 06:49:17;;;;;;;13.98;11.18;;;6.00;99.90;;;;;;5098006;28;20135;-62
2022/11/12 06:52:02;;;;;;;12.40;10.45;;;6.00;99.90;;;;;;5098634;28;20182;-62
2022/11/12 06:54:46;;;;;;;12.68;11.07;;;6.10;99.90;;;;;;5097818;28;20046;-62
2022/11/12 06:57:31;;;;;;;11.43;10.18;;;6.10;99.90;;;;;;5096883;28;20047;-62
2022/11/12 07:00:16;;;;;;;14.70;11.15;;;6.00;99.90;;;;;;5097473;28;20106;-62
2022/11/12 07:03:08;;;;;;;13.18;10.82;;;6.10;99.90;;;;;;5097229;28;20051;-62
2022/11/12 07:05:53;;;;;;;13.75;11.23;;;6.10;99.90;;;;;;5098178;28;20078;-62
2022/11/12 07:08:38;;;;;;;16.15;11.73;;;6.00;99.90;;;;;;5097568;28;20051;-62
2022/11/12 07:11:22;;;;;;;12.13;10.85;;;6.00;99.90;;;;;;5097709;28;20047;-62
2022/11/12 07:14:07;;;;;;;14.95;11.63;;;6.10;99.90;;;;;;5097601;28;20089;-63
2022/11/12 07:16:51;;;;;;;15.07;11.65;;;6.10;99.90;;;;;;5096989;28;20051;-61
2022/11/12 07:19:35;;;;;;;12.82;10.95;;;6.10;99.90;;;;;;5097562;28;20055;-62
2022/11/12 07:22:19;;;;;;;14.00;10.90;;;6.20;99.90;;;;;;5097365;28;20135;-62
2022/11/12 07:25:04;;;;;;;13.63;10.30;;;6.20;99.90;;;;;;5097689;28;20101;-62
2022/11/12 07:27:49;;;;;;;17.38;11.05;;;6.30;99.90;;;;;;5097152;28;20062;-62
2022/11/12 07:30:33;;;;;;;15.82;12.80;;;6.20;99.90;;;;;;5097524;28;20109;-62
2022/11/12 07:33:18;;;;;;;15.90;11.82;;;6.20;99.90;;;;;;5096623;28;20514;-62
2022/11/12 07:36:12;;;;;;;14.75;12.43;;;6.30;99.90;;;;;;5097077;28;20200;-63
2022/11/12 07:38:56;;;;;;;14.40;11.40;;;6.30;99.90;;;;;;5096729;28;20131;-62
2022/11/12 07:41:41;;;;;;;15.75;11.18;;;6.30;99.90;;;;;;5097311;28;20043;-61
2022/11/12 07:44:28;;;;;;;13.55;11.13;;;6.30;99.90;;;;;;5097586;28;20050;-62
2022/11/12 07:47:13;;;;;;;15.38;11.38;;;6.40;99.90;;;;;;5097223;28;20132;-62
2022/11/12 07:49:57;;;;;;;12.90;10.57;;;6.50;99.90;;;;;;5082832;28;20123;-61
2022/11/12 07:52:42;;;;;;;13.90;11.20;;;6.50;99.90;;;;;;5097117;28;20138;-62
2022/11/12 07:55:26;;;;;;;13.63;10.95;;;6.60;99.90;;;;;;5097214;28;20526;-62
2022/11/12 07:58:10;;;;;;;14.20;10.95;;;6.60;99.90;;;;;;5096934;28;20136;-61
2022/11/12 08:00:55;;;;;;;14.13;11.43;;;6.70;99.90;;;;;;5097615;28;20047;-61
2022/11/12 08:03:39;;;;;;;13.60;10.95;;;6.80;99.90;;;;;;5097238;28;20101;-60
2022/11/12 08:06:24;;;;;;;14.32;10.82;;;6.90;99.90;;;;;;5096416;28;20093;-61
2022/11/12 08:09:09;;;;;;;13.85;11.27;;;7.00;99.90;;;;;;5096904;28;20047;-61
2022/11/12 08:11:53;;;;;;;13.65;11.43;;;7.10;99.90;;;;;;5096934;28;20043;-61
2022/11/12 08:14:38;;;;;;;13.68;10.82;;;7.20;99.90;;;;;;5096834;28;20131;-61
2022/11/12 08:17:22;;;;;;;14.07;11.40;;;7.20;99.90;;;;;;5097216;28;20040;-61
2022/11/12 08:20:07;;;;;;;14.05;10.80;;;7.40;99.90;;;;;;5097197;28;20043;-62
2022/11/12 08:22:51;;;;;;;16.40;11.32;;;7.40;99.90;;;;;;5096850;28;20043;-62
2022/11/12 08:25:36;;;;;;;13.07;11.10;;;7.50;99.90;;;;;;5096579;28;20419;-62
2022/11/12 08:28:20;;;;;;;16.40;11.90;;;7.50;99.90;;;;;;5097318;28;20051;-61
2022/11/12 08:31:05;;;;;;;14.75;10.95;;;7.70;99.90;;;;;;5100524;28;20082;-61
2022/11/12 08:33:50;;;;;;;15.82;11.32;;;7.80;99.90;;;;;;5100932;28;20444;-62
2022/11/12 08:36:34;;;;;;;14.90;10.80;;;7.90;99.90;;;;;;5100802;28;20433;-63
2022/11/12 08:39:19;;;;;;;15.15;11.32;;;7.90;99.90;;;;;;5101045;28;20058;-62
2022/11/12 08:42:04;;;;;;;12.85;11.10;;;7.90;99.90;;;;;;5100793;28;20047;-62
2022/11/12 08:44:48;;;;;;;14.88;10.70;;;7.90;99.90;;;;;;5100486;28;20101;-61
2022/11/12 08:47:32;;;;;;;14.90;10.95;;;7.90;99.90;;;;;;5100748;28;20055;-61
2022/11/12 08:50:17;;;;;;;12.88;9.70;;;8.00;99.90;;;;;;5099903;28;20043;-62
2022/11/12 08:53:05;;;;;;;13.95;11.10;;;8.10;99.90;;;;;;5100023;28;20053;-61
2022/11/12 08:55:55;;;;;;;13.77;11.00;;;8.20;99.90;;;;;;5100277;28;20043;-62
2022/11/12 08:58:39;;;;;;;14.52;10.60;;;8.40;99.90;;;;;;5099980;28;20078;-61
2022/11/12 09:01:23;;;;;;;17.45;11.48;;;8.60;99.90;;;;;;5100535;28;20124;-62
2022/11/12 09:04:07;;;;;;;14.48;10.57;;;8.70;99.90;;;;;;5100114;28;20051;-62
2022/11/12 09:06:52;;;;;;;14.68;11.60;;;8.80;99.90;;;;;;5100710;28;20456;-63
2022/11/12 09:09:36;;;;;;;11.40;9.73;;;8.70;99.90;;;;;;5099787;28;20051;-60
2022/11/12 09:12:21;;;;;;;15.45;11.55;;;8.90;99.90;;;;;;5100572;28;20039;-60
2022/11/12 09:15:06;;;;;;;15.43;10.95;;;9.00;99.90;;;;;;5100208;28;20456;-61
2022/11/12 09:17:55;;;;;;;11.82;9.73;;;9.30;99.90;;;;;;5100166;28;20107;-61
2022/11/12 09:20:40;;;;;;;16.30;10.88;;;9.20;99.90;;;;;;5100201;28;20097;-61
2022/11/12 09:23:24;;;;;;;12.43;9.73;;;9.30;99.90;;;;;;5100162;28;20047;-61
2022/11/12 09:26:08;;;;;;;11.63;10.10;;;9.40;99.90;;;;;;5099494;28;20050;-61
2022/11/12 09:28:53;;;;;;;13.35;10.55;;;9.50;99.90;;;;;;5099533;28;20147;-61
2022/11/12 09:31:38;;;;;;;11.95;10.07;;;9.80;99.90;;;;;;5100211;28;20093;-61
2022/11/12 09:34:22;;;;;;;11.10;9.88;;;10.00;99.90;;;;;;5099455;28;20055;-61
2022/11/12 09:37:06;;;;;;;11.30;9.57;;;10.10;99.90;;;;;;5099476;28;20047;-61
2022/11/12 09:39:51;;;;;;;9.05;8.15;;;10.20;99.90;;;;;;5099025;28;20105;-61
2022/11/12 09:42:36;;;;;;;10.23;7.57;;;11.00;99.90;;;;;;5098722;28;20101;-61
2022/11/12 09:45:26;;;;;;;7.13;5.07;;;11.70;99.90;;;;;;5099509;28;20105;-59
2022/11/12 09:48:14;;;;;;;8.27;7.47;;;12.90;99.90;;;;;;5098919;28;20047;-62
2022/11/12 09:51:12;;;;;;;8.57;6.93;;;13.40;99.90;;;;;;5099208;28;20419;-62
2022/11/12 09:53:58;;;;;;;10.23;6.78;;;13.50;99.90;;;;;;5098604;28;20426;-62
2022/11/12 09:56:42;;;;;;;11.85;7.28;;;14.10;99.90;;;;;;5099604;28;20051;-61
2022/11/12 09:59:30;;;;;;;7.50;6.80;;;14.60;99.90;;;;;;5098861;28;20116;-62
2022/11/12 10:02:27;;;;;;;7.57;6.45;;;15.40;99.90;;;;;;5099495;28;20362;-62
2022/11/12 10:05:24;;;;;;;7.05;6.35;;;15.90;99.90;;;;;;5099150;28;20074;-62
2022/11/12 10:08:34;;;;;;;7.47;6.13;;;16.50;99.90;;;;;;5098755;28;20047;-62
2022/11/12 10:18:50;;;;;;;6.45;5.70;;;17.70;99.90;;;;;;5099387;28;20055;-62
2022/11/12 10:21:42;;;;;;;7.60;6.30;;;16.00;99.90;;;;;;5099457;28;20046;-61
2022/11/12 10:24:32;;;;;;;6.28;5.68;;;14.80;99.90;;;;;;5099308;28;20395;-61
2022/11/12 10:27:20;;;;;;;6.63;5.93;;;15.50;99.90;;;;;;5099025;28;20323;-62
2022/11/12 10:30:12;;;;;;;6.40;5.80;;;16.80;99.90;;;;;;5098683;28;20418;-62
2022/11/12 10:32:56;;;;;;;6.20;5.60;;;17.20;99.90;;;;;;5098685;28;20047;-61
2022/11/12 10:35:40;;;;;;;7.03;5.70;;;16.50;99.90;;;;;;5098018;28;20296;-61
2022/11/12 10:38:27;;;;;;;8.00;5.80;;;15.60;99.90;;;;;;5098308;28;20331;-61
2022/11/12 10:41:21;;;;;;;6.60;6.00;;;15.90;99.90;;;;;;5097735;28;20318;-61
2022/11/12 10:44:13;;;;;;;7.40;5.90;;;17.10;99.90;;;;;;5098468;28;20055;-61
2022/11/12 10:47:31;;;;;;;6.40;5.90;;;18.20;99.90;;;;;;5098589;28;20051;-59
2022/11/12 10:50:45;;;;;;;6.32;5.40;;;19.20;99.90;;;;;;5098400;28;20128;-62
2022/11/12 10:53:35;;;;;;;6.63;5.63;;;18.80;99.90;;;;;;5103463;28;20047;-62
2022/11/12 10:56:28;;;;;;;6.63;5.25;;;19.70;99.90;;;;;;5097505;28;20105;-62
2022/11/12 10:59:19;;;;;;;6.00;5.15;;;20.10;99.90;;;;;;5097917;28;20062;-62
2022/11/12 11:02:15;;;;;;;5.45;4.95;;;20.60;99.90;;;;;;5097890;28;20050;-62
2022/11/12 11:05:19;;;;;;;5.30;4.80;;;20.40;99.90;;;;;;5097614;28;20112;-62
2022/11/12 11:08:04;;;;;;;5.50;5.00;;;20.40;99.90;;;;;;5097299;28;20051;-61
2022/11/12 11:10:48;;;;;;;6.20;5.60;;;20.20;99.90;;;;;;5097828;28;20303;-61
2022/11/12 11:13:32;;;;;;;8.88;5.63;;;19.40;99.90;;;;;;5097656;28;20104;-62
2022/11/12 11:16:26;;;;;;;6.65;5.88;;;18.00;99.90;;;;;;5097984;28;20047;-61
2022/11/12 11:19:11;;;;;;;10.10;5.90;;;17.80;99.90;;;;;;5097894;28;20069;-61
2022/11/12 11:22:34;;;;;;;7.95;5.20;;;17.80;99.90;;;;;;5097544;28;20105;-61
2022/11/12 11:25:29;;;;;;;6.05;5.47;;;17.00;99.90;;;;;;5097787;28;20151;-60
2022/11/12 11:28:24;;;;;;;6.97;5.43;;;16.10;99.90;;;;;;5097548;28;20097;-61
2022/11/12 11:31:25;;;;;;;6.88;5.50;;;16.00;99.90;;;;;;5097476;28;20123;-61
2022/11/12 11:34:35;;;;;;;8.65;5.85;;;15.90;99.90;;;;;;5097023;28;20044;-61
2022/11/12 11:37:26;;;;;;;8.15;5.78;;;15.70;99.90;;;;;;5093634;28;20093;-61
2022/11/12 11:40:14;;;;;;;7.30;6.10;;;15.60;99.90;;;;;;5097045;28;20043;-62
2022/11/12 11:43:24;;;;;;;9.90;5.95;;;15.50;99.90;;;;;;5097765;28;20423;-60
2022/11/12 11:46:30;;;;;;;7.97;5.07;;;15.80;99.90;;;;;;5096782;28;20472;-59
2022/11/12 11:49:33;;;;;;;8.15;5.10;;;15.80;99.90;;;;;;5097407;28;20307;-61
2022/11/12 11:52:53;;;;;;;7.22;5.82;;;15.80;99.90;;;;;;5097019;28;20046;-60
2022/11/12 11:55:46;;;;;;;8.25;5.82;;;15.50;99.90;;;;;;5097351;28;20097;-60
2022/11/12 11:58:45;;;;;;;6.80;6.05;;;15.40;99.90;;;;;;5097262;28;20051;-60
2022/11/12 12:01:57;;;;;;;6.05;5.38;;;15.50;99.90;;;;;;5097326;28;20139;-61
2022/11/12 12:04:41;;;;;;;6.07;5.47;;;15.50;99.90;;;;;;5101662;28;20038;-60
2022/11/12 12:07:31;;;;;;;6.22;5.45;;;15.70;99.90;;;;;;5101548;28;20307;-60
2022/11/12 12:10:18;;;;;;;6.85;5.30;;;15.80;99.90;;;;;;5101173;28;20088;-60
2022/11/12 12:13:32;;;;;;;5.45;5.03;;;15.90;99.90;;;;;;5101441;28;20388;-60
2022/11/12 12:16:37;;;;;;;5.63;5.13;;;15.90;99.90;;;;;;5101066;28;20043;-60
2022/11/12 12:19:45;;;;;;;8.52;5.32;;;15.90;99.90;;;;;;5100988;28;20043;-60
2022/11/12 12:22:39;;;;;;;6.75;5.80;;;15.80;99.90;;;;;;5101554;28;20047;-60
2022/11/12 12:25:35;;;;;;;7.88;5.20;;;15.80;99.90;;;;;;5101464;28;20428;-61
2022/11/12 12:28:41;;;;;;;6.75;5.65;;;15.70;99.90;;;;;;5100989;28;20368;-62
2022/11/12 12:31:31;;;;;;;5.80;5.20;;;15.70;99.90;;;;;;5100721;28;20176;-59
2022/11/12 12:34:36;;;;;;;6.10;5.60;;;15.60;99.90;;;;;;5101287;28;20407;-60
2022/11/12 12:37:36;;;;;;;5.85;5.30;;;15.60;99.90;;;;;;5100764;28;20043;-59
2022/11/12 12:41:08;;;;;;;6.05;5.18;;;15.80;99.90;;;;;;5100804;28;20055;-60
2022/11/12 12:44:03;;;;;;;6.78;5.40;;;15.80;99.90;;;;;;5019468;28;20438;-61
2022/11/12 12:46:55;;;;;;;6.90;5.65;;;15.80;99.90;;;;;;5019610;28;20309;-61
2022/11/12 12:49:41;;;;;;;7.70;5.40;;;15.70;99.90;;;;;;5101193;28;20108;-60
2022/11/12 12:52:26;;;;;;;6.93;5.70;;;15.80;99.90;;;;;;5100380;28;20176;-60
2022/11/12 12:55:43;;;;;;;5.68;5.13;;;15.70;99.90;;;;;;5100647;28;20050;-59
2022/11/12 12:58:29;;;;;;;8.00;5.68;;;15.60;99.90;;;;;;5100475;28;20051;-60
2022/11/12 13:01:19;;;;;;;7.57;5.40;;;15.70;99.90;;;;;;5100556;28;20047;-60
2022/11/12 13:04:07;;;;;;;12.73;5.90;;;15.70;99.90;;;;;;5100573;28;20066;-57
2022/11/12 13:06:53;;;;;;;6.30;5.70;;;15.70;99.90;;;;;;5100709;28;20046;-61
2022/11/12 13:09:37;;;;;;;10.15;6.10;;;15.60;99.90;;;;;;5099933;28;20291;-60
2022/11/12 13:13:01;;;;;;;6.68;5.75;;;15.60;99.90;;;;;;5099847;28;20043;-60
2022/11/12 13:15:53;;;;;;;8.35;6.22;;;15.70;99.90;;;;;;5099673;28;20361;-61
2022/11/12 13:18:40;;;;;;;8.27;5.10;;;15.70;99.90;;;;;;5100279;28;20113;-60
2022/11/12 13:21:25;;;;;;;8.80;5.75;;;15.80;99.90;;;;;;5100195;28;20071;-61
2022/11/12 13:24:10;;;;;;;6.10;4.88;;;16.00;99.90;;;;;;5100086;28;20055;-60
2022/11/12 13:26:59;;;;;;;6.25;5.53;;;16.10;99.90;;;;;;5099637;28;20059;-60
2022/11/12 13:29:46;;;;;;;7.30;5.30;;;16.10;99.90;;;;;;5100104;28;20417;-60
2022/11/12 13:32:40;;;;;;;6.20;5.20;;;16.10;99.90;;;;;;5100021;28;20047;-60
2022/11/12 13:35:36;;;;;;;5.85;5.05;;;15.90;99.90;;;;;;5099131;28;20043;-61
2022/11/12 13:38:21;;;;;;;5.95;5.10;;;15.90;99.90;;;;;;5099699;28;20051;-61
2022/11/12 13:41:10;;;;;;;5.90;4.68;;;16.00;99.90;;;;;;5099664;28;20055;-60
2022/11/12 13:43:55;;;;;;;10.77;5.78;;;16.10;99.90;;;;;;5099388;28;20096;-61
2022/11/12 13:46:41;;;;;;;9.45;5.75;;;16.20;99.90;;;;;;5099538;28;20042;-59
2022/11/12 13:49:26;;;;;;;6.28;4.97;;;16.30;99.90;;;;;;5099297;28;20059;-60
2022/11/12 13:52:14;;;;;;;5.72;5.07;;;16.20;99.90;;;;;;5099741;28;20074;-61
2022/11/12 13:55:25;;;;;;;7.47;4.47;;;16.20;99.90;;;;;;5099520;28;20051;-60
2022/11/12 13:58:38;;;;;;;6.10;4.55;;;16.10;99.90;;;;;;5099399;28;20475;-61
2022/11/12 14:01:23;;;;;;;;;;;16.10;99.90;;;;;;5099574;28;20055;-61
2022/11/12 14:04:17;;;;;;;6.45;4.80;;;16.00;99.90;;;;;;5099085;28;19923;-61
2022/11/12 14:07:37;;;;;;;6.00;4.43;;;16.00;99.90;;;;;;5099392;28;20428;-61
2022/11/12 14:10:47;;;;;;;5.20;4.50;;;15.90;99.90;;;;;;5098274;28;20313;-61
2022/11/12 14:13:40;;;;;;;6.78;4.97;;;15.80;99.90;;;;;;5098289;28;20088;-61
2022/11/12 14:16:48;;;;;;;5.75;5.10;;;15.80;99.90;;;;;;5099193;28;20043;-61
2022/11/12 14:20:15;;;;;;;5.40;4.90;;;15.70;99.90;;;;;;5098720;28;20097;-61
2022/11/12 14:23:14;;;;;;;5.60;4.70;;;15.60;99.90;;;;;;5071045;28;20043;-60
2022/11/12 14:25:58;;;;;;;6.10;5.00;;;15.60;99.90;;;;;;5097822;28;20047;-61
2022/11/12 14:28:43;;;;;;;5.10;4.60;;;15.60;99.90;;;;;;5083683;28;20055;-60
2022/11/12 14:31:27;;;;;;;6.65;4.55;;;15.50;99.90;;;;;;5098701;28;20047;-60
2022/11/12 14:34:32;;;;;;;5.55;5.00;;;15.50;99.90;;;;;;5098694;28;20093;-60
2022/11/12 14:37:36;;;;;;;6.18;4.53;;;15.40;99.90;;;;;;5097826;28;20072;-60
2022/11/12 14:40:22;;;;;;;4.80;4.40;;;15.40;99.90;;;;;;5098433;28;20319;-60
2022/11/12 14:43:31;;;;;;;5.10;4.57;;;15.30;99.90;;;;;;5098414;28;20043;-60
2022/11/12 14:46:42;;;;;;;5.50;4.85;;;15.30;99.90;;;;;;5098445;28;20082;-60
2022/11/12 14:49:35;;;;;;;5.10;4.60;;;15.20;99.90;;;;;;5098718;28;20448;-60
2022/11/12 14:52:20;;;;;;;;;;;15.10;99.90;;;;;;5098282;28;20452;-61
2022/11/12 14:55:18;;;;;;;4.88;4.38;;;15.10;99.90;;;;;;5098359;28;19919;-61
2022/11/12 14:58:04;;;;;;;5.97;4.72;;;15.00;99.90;;;;;;5098020;28;20039;-61
2022/11/12 15:00:51;;;;;;;6.13;4.63;;;15.00;99.90;;;;;;5098177;28;20089;-60
2022/11/12 15:03:35;;;;;;;5.13;4.63;;;14.80;99.90;;;;;;5098241;28;20047;-61